sensor_id;sensor_type;location;lat;lon;timestamp;pressure;altitude;pressure_sealevel;temperature;humidity
45731;BME280;31440;48.584;13.460;2023-03-04T00:04:32;97121.06;;;0.17;100.00
45731;BME280;31440;48.584;13.460;2023-03-04T00:07:37;97129.56;;;0.18;100.00
45731;BME280;31440;48.584;13.460;2023-03-04T00:10:42;97125.19;;;-0.00;100.00
45731;BME280;31440;48.584;13.460;2023-03-04T00:13:46;97127.94;;;0.26;100.00
45731;BME280;31440;48.584;13.460;2023-03-04T00:16:51;97123.75;;;0.38;100.00
45731;BME280;31440;48.584;13.460;2023-03-04T00:23:01;97128.75;;;0.20;100.00
45731;BME280;31440;48.584;13.460;2023-03-04T00:26:06;97126.09;;;0.03;100.00
45731;BME280;31440;48.584;13.460;2023-03-04T00:29:13;97133.81;;;0.11;100.00
45731;BME280;31440;48.584;13.460;2023-03-04T00:32:18;97130.28;;;-0.06;100.00
45731;BME280;31440;48.584;13.460;2023-03-04T00:35:23;97129.56;;;0.18;100.00
45731;BME280;31440;48.584;13.460;2023-03-04T00:38:27;97134.53;;;-0.07;100.00
45731;BME280;31440;48.584;13.460;2023-03-04T00:41:32;97132.88;;;0.01;100.00
45731;BME280;31440;48.584;13.460;2023-03-04T00:44:36;97123.53;;;0.03;100.00
45731;BME280;31440;48.584;13.460;2023-03-04T00:47:41;97116.50;;;-0.27;100.00
45731;BME280;31440;48.584;13.460;2023-03-04T00:53:52;97117.53;;;-0.05;100.00
45731;BME280;31440;48.584;13.460;2023-03-04T00:56:57;97120.00;;;-0.14;100.00
45731;BME280;31440;48.584;13.460;2023-03-04T01:00:01;97127.66;;;-0.15;100.00
45731;BME280;31440;48.584;13.460;2023-03-04T01:06:12;97124.91;;;-0.41;100.00
45731;BME280;31440;48.584;13.460;2023-03-04T01:09:17;97123.25;;;-0.32;100.00
45731;BME280;31440;48.584;13.460;2023-03-04T01:12:21;97109.66;;;-0.29;100.00
45731;BME280;31440;48.584;13.460;2023-03-04T01:15:26;97111.41;;;-0.23;100.00
45731;BME280;31440;48.584;13.460;2023-03-04T01:18:31;97113.88;;;-0.34;100.00
45731;BME280;31440;48.584;13.460;2023-03-04T01:21:35;97111.72;;;-0.84;100.00
45731;BME280;31440;48.584;13.460;2023-03-04T01:24:40;97102.41;;;-0.80;100.00
45731;BME280;31440;48.584;13.460;2023-03-04T01:27:44;97101.44;;;-0.93;100.00
45731;BME280;31440;48.584;13.460;2023-03-04T01:30:49;97106.81;;;-0.64;100.00
45731;BME280;31440;48.584;13.460;2023-03-04T01:36:59;97106.03;;;-0.58;100.00
45731;BME280;31440;48.584;13.460;2023-03-04T01:40:04;97108.59;;;-0.54;100.00
45731;BME280;31440;48.584;13.460;2023-03-04T01:43:19;97109.41;;;-0.56;100.00
45731;BME280;31440;48.584;13.460;2023-03-04T01:46:25;97093.94;;;-0.73;100.00
45731;BME280;31440;48.584;13.460;2023-03-04T01:49:30;97103.63;;;-0.40;100.00
45731;BME280;31440;48.584;13.460;2023-03-04T01:52:41;97104.97;;;-0.79;100.00
45731;BME280;31440;48.584;13.460;2023-03-04T01:55:47;97099.88;;;-0.77;100.00
45731;BME280;31440;48.584;13.460;2023-03-04T01:59:17;97091.41;;;-0.75;100.00
45731;BME280;31440;48.584;13.460;2023-03-04T02:02:22;97092.88;;;-0.98;100.00
45731;BME280;31440;48.584;13.460;2023-03-04T02:05:27;97086.78;;;-1.12;100.00
45731;BME280;31440;48.584;13.460;2023-03-04T02:08:33;97093.59;;;-1.08;100.00
45731;BME280;31440;48.584;13.460;2023-03-04T02:11:38;97083.59;;;-0.88;100.00
45731;BME280;31440;48.584;13.460;2023-03-04T02:14:43;97062.16;;;-1.06;100.00
45731;BME280;31440;48.584;13.460;2023-03-04T02:17:49;97035.66;;;-1.20;100.00
45731;BME280;31440;48.584;13.460;2023-03-04T02:24:29;97083.50;;;-0.99;100.00
45731;BME280;31440;48.584;13.460;2023-03-04T02:27:34;97075.81;;;-1.01;100.00
45731;BME280;31440;48.584;13.460;2023-03-04T02:30:39;97078.19;;;-1.19;100.00
45731;BME280;31440;48.584;13.460;2023-03-04T02:33:44;97075.34;;;-1.43;100.00
45731;BME280;31440;48.584;13.460;2023-03-04T02:36:50;97075.69;;;-1.14;100.00
45731;BME280;31440;48.584;13.460;2023-03-04T02:39:55;97028.34;;;-1.63;100.00
45731;BME280;31440;48.584;13.460;2023-03-04T02:43:00;97084.56;;;-1.56;100.00
45731;BME280;31440;48.584;13.460;2023-03-04T02:46:05;97075.22;;;-1.55;100.00
45731;BME280;31440;48.584;13.460;2023-03-04T02:49:10;97073.41;;;-1.66;100.00
45731;BME280;31440;48.584;13.460;2023-03-04T02:52:19;97073.19;;;-1.81;100.00
45731;BME280;31440;48.584;13.460;2023-03-04T02:55:25;97075.50;;;-1.97;100.00
45731;BME280;31440;48.584;13.460;2023-03-04T02:58:30;97070.94;;;-1.58;100.00
45731;BME280;31440;48.584;13.460;2023-03-04T03:01:35;97079.53;;;-1.50;100.00
45731;BME280;31440;48.584;13.460;2023-03-04T03:04:40;97073.16;;;-1.84;100.00
45731;BME280;31440;48.584;13.460;2023-03-04T03:07:48;97072.69;;;-2.17;100.00
45731;BME280;31440;48.584;13.460;2023-03-04T03:10:53;97073.31;;;-2.32;100.00
45731;BME280;31440;48.584;13.460;2023-03-04T03:13:59;97063.09;;;-2.33;100.00
45731;BME280;31440;48.584;13.460;2023-03-04T03:17:04;97076.19;;;-2.09;100.00
45731;BME280;31440;48.584;13.460;2023-03-04T03:20:09;97077.53;;;-2.34;100.00
45731;BME280;31440;48.584;13.460;2023-03-04T03:26:21;97067.28;;;-2.39;100.00
45731;BME280;31440;48.584;13.460;2023-03-04T03:29:26;97068.34;;;-2.24;100.00
45731;BME280;31440;48.584;13.460;2023-03-04T03:32:30;97076.25;;;-2.06;100.00
45731;BME280;31440;48.584;13.460;2023-03-04T03:35:35;97073.44;;;-2.24;100.00
45731;BME280;31440;48.584;13.460;2023-03-04T03:38:40;97069.44;;;-2.07;100.00
45731;BME280;31440;48.584;13.460;2023-03-04T03:44:50;97066.91;;;-2.06;100.00
45731;BME280;31440;48.584;13.460;2023-03-04T03:47:55;97064.13;;;-2.22;100.00
45731;BME280;31440;48.584;13.460;2023-03-04T03:51:00;97063.13;;;-2.32;100.00
45731;BME280;31440;48.584;13.460;2023-03-04T03:54:05;97066.66;;;-2.24;100.00
45731;BME280;31440;48.584;13.460;2023-03-04T03:57:09;97066.78;;;-2.15;100.00
45731;BME280;31440;48.584;13.460;2023-03-04T04:00:14;97065.94;;;-2.14;100.00
45731;BME280;31440;48.584;13.460;2023-03-04T04:03:21;97029.97;;;-2.35;100.00
45731;BME280;31440;48.584;13.460;2023-03-04T04:06:26;97067.16;;;-1.89;100.00
45731;BME280;31440;48.584;13.460;2023-03-04T04:09:30;97066.66;;;-1.59;100.00
45731;BME280;31440;48.584;13.460;2023-03-04T04:12:35;97066.44;;;-1.77;100.00
45731;BME280;31440;48.584;13.460;2023-03-04T04:15:39;97069.88;;;-2.37;100.00
45731;BME280;31440;48.584;13.460;2023-03-04T04:18:44;97066.56;;;-2.30;100.00
45731;BME280;31440;48.584;13.460;2023-03-04T04:21:48;97059.53;;;-2.45;100.00
45731;BME280;31440;48.584;13.460;2023-03-04T04:27:59;97074.31;;;-2.77;100.00
45731;BME280;31440;48.584;13.460;2023-03-04T04:31:08;97077.88;;;-2.65;100.00
45731;BME280;31440;48.584;13.460;2023-03-04T04:34:13;97080.72;;;-2.47;100.00
45731;BME280;31440;48.584;13.460;2023-03-04T04:37:17;97074.47;;;-2.66;100.00
45731;BME280;31440;48.584;13.460;2023-03-04T04:40:22;97079.28;;;-2.30;100.00
45731;BME280;31440;48.584;13.460;2023-03-04T04:46:32;97073.84;;;-1.94;100.00
45731;BME280;31440;48.584;13.460;2023-03-04T04:49:37;97074.00;;;-1.82;100.00
45731;BME280;31440;48.584;13.460;2023-03-04T04:52:42;97049.84;;;-2.67;100.00
45731;BME280;31440;48.584;13.460;2023-03-04T04:55:46;97081.09;;;-2.23;100.00
45731;BME280;31440;48.584;13.460;2023-03-04T04:58:57;97077.34;;;-2.46;100.00
45731;BME280;31440;48.584;13.460;2023-03-04T05:02:02;97073.22;;;-2.40;100.00
45731;BME280;31440;48.584;13.460;2023-03-04T05:05:06;97049.84;;;-2.67;100.00
45731;BME280;31440;48.584;13.460;2023-03-04T05:11:18;97092.44;;;-2.58;100.00
45731;BME280;31440;48.584;13.460;2023-03-04T05:14:22;97081.41;;;-2.57;100.00
45731;BME280;31440;48.584;13.460;2023-03-04T05:17:27;97084.81;;;-2.57;100.00
45731;BME280;31440;48.584;13.460;2023-03-04T05:20:32;97086.69;;;-2.96;100.00
45731;BME280;31440;48.584;13.460;2023-03-04T05:23:40;97088.25;;;-3.03;100.00
45731;BME280;31440;48.584;13.460;2023-03-04T05:29:50;97086.53;;;-3.04;100.00
45731;BME280;31440;48.584;13.460;2023-03-04T05:32:55;97092.75;;;-2.88;100.00
45731;BME280;31440;48.584;13.460;2023-03-04T05:36:02;97090.31;;;-2.84;100.00
45731;BME280;31440;48.584;13.460;2023-03-04T05:39:07;97074.97;;;-2.87;100.00
45731;BME280;31440;48.584;13.460;2023-03-04T05:42:12;97084.34;;;-2.84;100.00
45731;BME280;31440;48.584;13.460;2023-03-04T05:45:16;97081.81;;;-2.84;100.00
45731;BME280;31440;48.584;13.460;2023-03-04T05:48:21;97087.22;;;-2.66;100.00
45731;BME280;31440;48.584;13.460;2023-03-04T05:51:26;97089.66;;;-2.71;100.00
45731;BME280;31440;48.584;13.460;2023-03-04T05:54:30;97086.53;;;-2.56;100.00
45731;BME280;31440;48.584;13.460;2023-03-04T05:57:35;97088.69;;;-2.79;100.00
45731;BME280;31440;48.584;13.460;2023-03-04T06:00:40;97092.25;;;-2.69;100.00
45731;BME280;31440;48.584;13.460;2023-03-04T06:03:44;97098.75;;;-2.85;100.00
45731;BME280;31440;48.584;13.460;2023-03-04T06:06:51;97095.66;;;-2.68;100.00
45731;BME280;31440;48.584;13.460;2023-03-04T06:09:56;97105.59;;;-2.82;100.00
45731;BME280;31440;48.584;13.460;2023-03-04T06:13:00;97103.28;;;-2.68;100.00
45731;BME280;31440;48.584;13.460;2023-03-04T06:16:05;97106.94;;;-3.02;100.00
45731;BME280;31440;48.584;13.460;2023-03-04T06:19:12;97082.16;;;-3.56;100.00
45731;BME280;31440;48.584;13.460;2023-03-04T06:22:16;97110.34;;;-3.46;100.00
45731;BME280;31440;48.584;13.460;2023-03-04T06:25:21;97119.25;;;-3.66;100.00
45731;BME280;31440;48.584;13.460;2023-03-04T06:28:26;97119.44;;;-3.15;100.00
45731;BME280;31440;48.584;13.460;2023-03-04T06:31:31;97124.03;;;-3.39;100.00
45731;BME280;31440;48.584;13.460;2023-03-04T06:34:36;97128.34;;;-3.35;100.00
45731;BME280;31440;48.584;13.460;2023-03-04T06:37:41;97132.28;;;-3.09;100.00
45731;BME280;31440;48.584;13.460;2023-03-04T06:40:45;97134.75;;;-3.54;100.00
45731;BME280;31440;48.584;13.460;2023-03-04T06:43:52;97131.84;;;-3.30;100.00
45731;BME280;31440;48.584;13.460;2023-03-04T06:50:04;97144.59;;;-3.28;100.00
45731;BME280;31440;48.584;13.460;2023-03-04T06:53:08;97147.13;;;-2.85;100.00
45731;BME280;31440;48.584;13.460;2023-03-04T06:56:13;97125.63;;;-3.00;100.00
45731;BME280;31440;48.584;13.460;2023-03-04T06:59:21;97141.47;;;-2.68;100.00
45731;BME280;31440;48.584;13.460;2023-03-04T07:02:25;97151.25;;;-2.91;100.00
45731;BME280;31440;48.584;13.460;2023-03-04T07:05:30;97150.19;;;-2.56;100.00
45731;BME280;31440;48.584;13.460;2023-03-04T07:08:34;97147.47;;;-3.12;100.00
45731;BME280;31440;48.584;13.460;2023-03-04T07:11:39;97154.47;;;-2.52;100.00
45731;BME280;31440;48.584;13.460;2023-03-04T07:14:43;97147.28;;;-2.76;100.00
45731;BME280;31440;48.584;13.460;2023-03-04T07:17:48;97127.69;;;-2.30;100.00
45731;BME280;31440;48.584;13.460;2023-03-04T07:20:52;97147.88;;;-1.88;100.00
45731;BME280;31440;48.584;13.460;2023-03-04T07:23:57;97155.69;;;-1.76;100.00
45731;BME280;31440;48.584;13.460;2023-03-04T07:27:01;97152.16;;;-1.85;100.00
45731;BME280;31440;48.584;13.460;2023-03-04T07:33:13;97163.16;;;-1.88;100.00
45731;BME280;31440;48.584;13.460;2023-03-04T07:36:18;97157.78;;;-2.06;100.00
45731;BME280;31440;48.584;13.460;2023-03-04T07:39:23;97161.41;;;-1.92;100.00
45731;BME280;31440;48.584;13.460;2023-03-04T07:42:27;97168.72;;;-2.13;100.00
45731;BME280;31440;48.584;13.460;2023-03-04T07:45:39;97163.75;;;-2.06;100.00
45731;BME280;31440;48.584;13.460;2023-03-04T07:48:44;97168.69;;;-2.15;100.00
45731;BME280;31440;48.584;13.460;2023-03-04T07:51:49;97164.13;;;-1.80;100.00
45731;BME280;31440;48.584;13.460;2023-03-04T07:57:59;97161.53;;;-1.84;100.00
45731;BME280;31440;48.584;13.460;2023-03-04T08:01:18;97168.00;;;-2.05;100.00
45731;BME280;31440;48.584;13.460;2023-03-04T08:04:23;97161.22;;;-1.42;100.00
45731;BME280;31440;48.584;13.460;2023-03-04T08:07:27;97161.50;;;-1.86;100.00
45731;BME280;31440;48.584;13.460;2023-03-04T08:10:32;97165.84;;;-1.79;100.00
45731;BME280;31440;48.584;13.460;2023-03-04T08:13:37;97167.84;;;-1.56;100.00
45731;BME280;31440;48.584;13.460;2023-03-04T08:16:42;97158.88;;;-1.28;100.00
45731;BME280;31440;48.584;13.460;2023-03-04T08:19:46;97164.94;;;-1.19;100.00
45731;BME280;31440;48.584;13.460;2023-03-04T08:22:51;97168.69;;;-0.88;100.00
45731;BME280;31440;48.584;13.460;2023-03-04T08:25:55;97170.53;;;-0.76;100.00
45731;BME280;31440;48.584;13.460;2023-03-04T08:29:04;97167.06;;;-0.83;100.00
45731;BME280;31440;48.584;13.460;2023-03-04T08:32:08;97173.91;;;-0.80;100.00
45731;BME280;31440;48.584;13.460;2023-03-04T08:35:13;97161.38;;;-0.57;100.00
45731;BME280;31440;48.584;13.460;2023-03-04T08:38:18;97162.50;;;-0.25;100.00
45731;BME280;31440;48.584;13.460;2023-03-04T08:41:24;97138.81;;;-0.98;100.00
45731;BME280;31440;48.584;13.460;2023-03-04T08:44:30;97165.94;;;-0.20;100.00
45731;BME280;31440;48.584;13.460;2023-03-04T08:47:35;97167.53;;;-0.34;100.00
45731;BME280;31440;48.584;13.460;2023-03-04T08:50:39;97161.69;;;-0.18;100.00
45731;BME280;31440;48.584;13.460;2023-03-04T08:53:44;97149.91;;;-0.01;100.00
45731;BME280;31440;48.584;13.460;2023-03-04T08:56:49;97157.06;;;0.54;100.00
45731;BME280;31440;48.584;13.460;2023-03-04T08:59:53;97134.84;;;0.40;100.00
45731;BME280;31440;48.584;13.460;2023-03-04T09:02:58;97152.88;;;0.69;100.00
45731;BME280;31440;48.584;13.460;2023-03-04T09:06:04;97157.31;;;0.99;100.00
45731;BME280;31440;48.584;13.460;2023-03-04T09:12:14;97159.03;;;1.11;100.00
45731;BME280;31440;48.584;13.460;2023-03-04T09:15:19;97149.78;;;1.83;100.00
45731;BME280;31440;48.584;13.460;2023-03-04T09:18:23;97164.28;;;1.54;100.00
45731;BME280;31440;48.584;13.460;2023-03-04T09:21:28;97163.34;;;1.18;100.00
45731;BME280;31440;48.584;13.460;2023-03-04T09:24:33;97158.31;;;1.88;100.00
45731;BME280;31440;48.584;13.460;2023-03-04T09:30:43;97121.59;;;1.75;100.00
45731;BME280;31440;48.584;13.460;2023-03-04T09:33:49;97137.78;;;1.94;100.00
45731;BME280;31440;48.584;13.460;2023-03-04T09:36:56;97116.41;;;2.27;100.00
45731;BME280;31440;48.584;13.460;2023-03-04T09:40:01;97138.63;;;2.28;100.00
45731;BME280;31440;48.584;13.460;2023-03-04T09:43:19;97138.56;;;2.56;100.00
45731;BME280;31440;48.584;13.460;2023-03-04T09:46:35;97140.13;;;2.96;93.46
45731;BME280;31440;48.584;13.460;2023-03-04T09:49:44;97130.94;;;3.98;83.58
45731;BME280;31440;48.584;13.460;2023-03-04T09:56:06;97139.16;;;3.21;83.46
45731;BME280;31440;48.584;13.460;2023-03-04T10:02:39;97134.59;;;3.69;89.26
45731;BME280;31440;48.584;13.460;2023-03-04T10:05:56;97131.34;;;3.38;85.09
45731;BME280;31440;48.584;13.460;2023-03-04T10:09:18;97119.31;;;3.43;77.22
45731;BME280;31440;48.584;13.460;2023-03-04T10:12:28;97123.22;;;3.98;80.76
45731;BME280;31440;48.584;13.460;2023-03-04T10:15:41;97129.31;;;3.87;76.03
45731;BME280;31440;48.584;13.460;2023-03-04T10:21:53;97124.41;;;3.54;76.39
45731;BME280;31440;48.584;13.460;2023-03-04T10:25:09;97095.63;;;4.16;76.58
45731;BME280;31440;48.584;13.460;2023-03-04T10:28:20;97111.06;;;4.96;72.60
45731;BME280;31440;48.584;13.460;2023-03-04T10:34:35;97102.09;;;5.21;71.78
45731;BME280;31440;48.584;13.460;2023-03-04T10:37:45;97098.53;;;4.64;67.26
45731;BME280;31440;48.584;13.460;2023-03-04T10:40:52;97094.56;;;4.37;67.82
45731;BME280;31440;48.584;13.460;2023-03-04T10:44:14;97104.50;;;3.77;69.79
45731;BME280;31440;48.584;13.460;2023-03-04T10:47:27;97083.13;;;4.61;66.48
45731;BME280;31440;48.584;13.460;2023-03-04T10:50:32;97084.81;;;5.31;65.32
45731;BME280;31440;48.584;13.460;2023-03-04T10:53:39;97093.13;;;5.50;62.49
45731;BME280;31440;48.584;13.460;2023-03-04T10:57:02;97088.53;;;4.38;63.85
45731;BME280;31440;48.584;13.460;2023-03-04T11:06:31;97083.00;;;5.36;59.80
45731;BME280;31440;48.584;13.460;2023-03-04T11:09:36;97069.16;;;5.42;60.19
45731;BME280;31440;48.584;13.460;2023-03-04T11:12:54;97063.72;;;5.60;60.97
45731;BME280;31440;48.584;13.460;2023-03-04T11:16:04;97066.06;;;5.18;61.09
45731;BME280;31440;48.584;13.460;2023-03-04T11:19:14;97068.19;;;4.87;61.80
45731;BME280;31440;48.584;13.460;2023-03-04T11:22:21;97057.81;;;5.53;61.30
45731;BME280;31440;48.584;13.460;2023-03-04T11:25:30;97058.53;;;5.61;61.84
45731;BME280;31440;48.584;13.460;2023-03-04T11:31:54;97065.75;;;5.40;63.62
45731;BME280;31440;48.584;13.460;2023-03-04T11:41:22;97072.22;;;5.08;65.26
45731;BME280;31440;48.584;13.460;2023-03-04T11:44:29;97056.47;;;5.83;63.85
45731;BME280;31440;48.584;13.460;2023-03-04T11:51:17;97058.50;;;6.15;61.32
45731;BME280;31440;48.584;13.460;2023-03-04T12:01:32;97054.97;;;6.19;61.22
45731;BME280;31440;48.584;13.460;2023-03-04T12:05:22;97047.63;;;5.98;62.44
45731;BME280;31440;48.584;13.460;2023-03-04T12:08:55;97055.81;;;6.21;61.74
45731;BME280;31440;48.584;13.460;2023-03-04T12:12:29;97055.16;;;5.58;60.26
45731;BME280;31440;48.584;13.460;2023-03-04T12:16:03;97042.81;;;6.70;61.14
45731;BME280;31440;48.584;13.460;2023-03-04T12:19:36;97036.78;;;5.78;61.36
45731;BME280;31440;48.584;13.460;2023-03-04T12:22:51;97035.69;;;6.40;62.73
45731;BME280;31440;48.584;13.460;2023-03-04T12:33:29;97037.34;;;4.09;65.04
45731;BME280;31440;48.584;13.460;2023-03-04T12:36:50;97033.22;;;5.85;60.42
45731;BME280;31440;48.584;13.460;2023-03-04T12:49:54;97028.47;;;6.10;56.06
45731;BME280;31440;48.584;13.460;2023-03-04T12:53:23;97022.75;;;6.82;57.31
45731;BME280;31440;48.584;13.460;2023-03-04T12:56:41;97016.25;;;6.64;55.81
45731;BME280;31440;48.584;13.460;2023-03-04T13:06:45;97004.63;;;6.85;54.77
45731;BME280;31440;48.584;13.460;2023-03-04T13:09:57;96996.91;;;5.95;55.87
45731;BME280;31440;48.584;13.460;2023-03-04T13:13:04;97005.63;;;5.38;57.62
45731;BME280;31440;48.584;13.460;2023-03-04T13:19:44;97009.03;;;5.40;58.46
45731;BME280;31440;48.584;13.460;2023-03-04T13:32:35;97002.91;;;4.90;59.86
45731;BME280;31440;48.584;13.460;2023-03-04T13:42:40;97012.59;;;3.98;62.96
45731;BME280;31440;48.584;13.460;2023-03-04T13:45:45;97030.81;;;2.40;69.25
45731;BME280;31440;48.584;13.460;2023-03-04T13:51:57;97001.94;;;1.65;75.20
45731;BME280;31440;48.584;13.460;2023-03-04T13:55:37;97020.75;;;1.46;79.36
45731;BME280;31440;48.584;13.460;2023-03-04T13:58:44;97025.00;;;1.01;85.66
45731;BME280;31440;48.584;13.460;2023-03-04T14:02:08;97020.75;;;1.70;82.64
45731;BME280;31440;48.584;13.460;2023-03-04T14:05:14;97022.41;;;1.83;81.98
45731;BME280;31440;48.584;13.460;2023-03-04T14:08:19;97017.25;;;1.94;83.64
45731;BME280;31440;48.584;13.460;2023-03-04T14:11:33;97009.59;;;1.93;78.57
45731;BME280;31440;48.584;13.460;2023-03-04T14:17:51;97018.22;;;1.40;85.19
45731;BME280;31440;48.584;13.460;2023-03-04T14:20:57;97018.19;;;1.28;84.18
45731;BME280;31440;48.584;13.460;2023-03-04T14:24:06;97021.59;;;1.49;84.74
45731;BME280;31440;48.584;13.460;2023-03-04T14:27:12;96983.16;;;1.51;83.75
45731;BME280;31440;48.584;13.460;2023-03-04T14:30:23;96992.72;;;3.17;71.72
45731;BME280;31440;48.584;13.460;2023-03-04T14:36:51;96986.28;;;3.70;65.22
45731;BME280;31440;48.584;13.460;2023-03-04T14:39:57;96991.03;;;3.17;66.24
45731;BME280;31440;48.584;13.460;2023-03-04T14:43:06;96986.66;;;3.27;65.86
45731;BME280;31440;48.584;13.460;2023-03-04T14:46:14;96987.84;;;2.80;67.41
45731;BME280;31440;48.584;13.460;2023-03-04T14:49:22;96999.97;;;3.72;62.11
45731;BME280;31440;48.584;13.460;2023-03-04T14:52:32;96991.59;;;1.99;71.60
45731;BME280;31440;48.584;13.460;2023-03-04T14:55:37;97009.63;;;1.61;74.08
45731;BME280;31440;48.584;13.460;2023-03-04T14:58:53;97008.75;;;0.81;81.18
45731;BME280;31440;48.584;13.460;2023-03-04T15:05:31;97006.84;;;0.13;92.92
45731;BME280;31440;48.584;13.460;2023-03-04T15:08:37;96958.38;;;0.57;91.95
45731;BME280;31440;48.584;13.460;2023-03-04T15:12:08;96989.94;;;0.61;88.42
45731;BME280;31440;48.584;13.460;2023-03-04T15:15:40;96989.91;;;0.49;89.51
45731;BME280;31440;48.584;13.460;2023-03-04T15:19:03;96988.91;;;0.10;92.48
45731;BME280;31440;48.584;13.460;2023-03-04T15:22:10;96938.69;;;0.24;92.33
45731;BME280;31440;48.584;13.460;2023-03-04T15:25:15;96966.53;;;-0.40;97.99
45731;BME280;31440;48.584;13.460;2023-03-04T15:28:24;96994.22;;;-0.90;100.00
45731;BME280;31440;48.584;13.460;2023-03-04T15:31:30;96993.81;;;-0.31;100.00
45731;BME280;31440;48.584;13.460;2023-03-04T15:34:35;96998.81;;;-0.46;100.00
45731;BME280;31440;48.584;13.460;2023-03-04T15:37:40;96989.59;;;-0.24;97.96
45731;BME280;31440;48.584;13.460;2023-03-04T15:40:46;96972.66;;;-0.04;94.46
45731;BME280;31440;48.584;13.460;2023-03-04T15:43:52;96988.06;;;0.17;96.47
45731;BME280;31440;48.584;13.460;2023-03-04T15:46:57;96987.88;;;-0.27;97.17
45731;BME280;31440;48.584;13.460;2023-03-04T15:50:01;96995.22;;;-0.76;100.00
45731;BME280;31440;48.584;13.460;2023-03-04T15:53:12;96989.19;;;-0.84;100.00
45731;BME280;31440;48.584;13.460;2023-03-04T15:56:26;96991.09;;;-0.58;100.00
45731;BME280;31440;48.584;13.460;2023-03-04T15:59:31;96939.09;;;-0.67;100.00
45731;BME280;31440;48.584;13.460;2023-03-04T16:02:36;96996.03;;;-0.78;100.00
45731;BME280;31440;48.584;13.460;2023-03-04T16:05:41;96999.22;;;-1.04;100.00
45731;BME280;31440;48.584;13.460;2023-03-04T16:08:48;96998.50;;;-0.87;100.00
45731;BME280;31440;48.584;13.460;2023-03-04T16:11:54;96996.19;;;-0.60;100.00
45731;BME280;31440;48.584;13.460;2023-03-04T16:15:00;96999.47;;;-0.72;100.00
45731;BME280;31440;48.584;13.460;2023-03-04T16:18:06;96940.13;;;-1.46;100.00
45731;BME280;31440;48.584;13.460;2023-03-04T16:21:16;97009.28;;;-1.19;100.00
45731;BME280;31440;48.584;13.460;2023-03-04T16:24:21;97004.94;;;-1.27;100.00
45731;BME280;31440;48.584;13.460;2023-03-04T16:27:25;97019.47;;;-1.22;100.00
45731;BME280;31440;48.584;13.460;2023-03-04T16:30:30;97009.31;;;-1.16;100.00
45731;BME280;31440;48.584;13.460;2023-03-04T16:33:35;97008.53;;;-1.07;100.00
45731;BME280;31440;48.584;13.460;2023-03-04T16:36:39;97012.78;;;-1.08;100.00
45731;BME280;31440;48.584;13.460;2023-03-04T16:39:45;97000.88;;;-1.12;100.00
45731;BME280;31440;48.584;13.460;2023-03-04T16:42:52;96993.19;;;-1.13;100.00
45731;BME280;31440;48.584;13.460;2023-03-04T16:45:57;97008.47;;;-1.16;100.00
45731;BME280;31440;48.584;13.460;2023-03-04T16:49:01;97001.56;;;-1.25;100.00
45731;BME280;31440;48.584;13.460;2023-03-04T16:52:07;;;;-1.02;
45731;BME280;31440;48.584;13.460;2023-03-04T16:55:23;97008.63;;;-0.98;100.00
45731;BME280;31440;48.584;13.460;2023-03-04T16:58:28;97012.78;;;-1.11;100.00
45731;BME280;31440;48.584;13.460;2023-03-04T17:01:32;97013.41;;;-1.33;100.00
45731;BME280;31440;48.584;13.460;2023-03-04T17:04:40;97011.63;;;-1.40;100.00
45731;BME280;31440;48.584;13.460;2023-03-04T17:07:45;97031.47;;;-1.10;100.00
45731;BME280;31440;48.584;13.460;2023-03-04T17:10:50;97018.53;;;-1.32;100.00
45731;BME280;31440;48.584;13.460;2023-03-04T17:13:55;97023.97;;;-0.97;100.00
45731;BME280;31440;48.584;13.460;2023-03-04T17:17:02;97023.28;;;-0.79;100.00
45731;BME280;31440;48.584;13.460;2023-03-04T17:20:09;97023.22;;;-0.85;100.00
45731;BME280;31440;48.584;13.460;2023-03-04T17:23:14;97018.72;;;-1.12;100.00
45731;BME280;31440;48.584;13.460;2023-03-04T17:26:19;97022.13;;;-1.13;100.00
45731;BME280;31440;48.584;13.460;2023-03-04T17:29:24;97020.34;;;-1.18;100.00
45731;BME280;31440;48.584;13.460;2023-03-04T17:32:29;97032.16;;;-1.29;100.00
45731;BME280;31440;48.584;13.460;2023-03-04T17:35:37;97022.28;;;-0.94;100.00
45731;BME280;31440;48.584;13.460;2023-03-04T17:38:42;97029.50;;;-1.37;100.00
45731;BME280;31440;48.584;13.460;2023-03-04T17:41:50;97034.78;;;-1.22;100.00
45731;BME280;31440;48.584;13.460;2023-03-04T17:44:55;97028.09;;;-1.12;100.00
45731;BME280;31440;48.584;13.460;2023-03-04T17:47:59;97023.88;;;-1.06;100.00
45731;BME280;31440;48.584;13.460;2023-03-04T17:51:04;97030.63;;;-1.14;100.00
45731;BME280;31440;48.584;13.460;2023-03-04T17:54:09;97037.53;;;-1.02;100.00
45731;BME280;31440;48.584;13.460;2023-03-04T17:57:16;97003.06;;;-1.47;100.00
45731;BME280;31440;48.584;13.460;2023-03-04T18:00:20;97034.97;;;-1.02;100.00
45731;BME280;31440;48.584;13.460;2023-03-04T18:03:25;97037.66;;;-0.85;100.00
45731;BME280;31440;48.584;13.460;2023-03-04T18:06:30;97045.28;;;-0.93;100.00
45731;BME280;31440;48.584;13.460;2023-03-04T18:09:34;97029.91;;;-0.99;100.00
45731;BME280;31440;48.584;13.460;2023-03-04T18:12:39;97048.03;;;-0.69;100.00
45731;BME280;31440;48.584;13.460;2023-03-04T18:15:44;97034.19;;;-0.95;100.00
45731;BME280;31440;48.584;13.460;2023-03-04T18:18:49;97051.34;;;-0.80;100.00
45731;BME280;31440;48.584;13.460;2023-03-04T18:21:54;97054.69;;;-0.86;100.00
45731;BME280;31440;48.584;13.460;2023-03-04T18:24:59;97050.31;;;-0.99;100.00
45731;BME280;31440;48.584;13.460;2023-03-04T18:28:05;97043.50;;;-1.00;100.00
45731;BME280;31440;48.584;13.460;2023-03-04T18:31:10;97046.94;;;-0.97;100.00
45731;BME280;31440;48.584;13.460;2023-03-04T18:34:14;97046.97;;;-0.93;100.00
45731;BME280;31440;48.584;13.460;2023-03-04T18:37:19;97054.31;;;-1.24;100.00
45731;BME280;31440;48.584;13.460;2023-03-04T18:40:23;97047.81;;;-0.96;100.00
45731;BME280;31440;48.584;13.460;2023-03-04T18:43:28;97045.00;;;-1.19;100.00